sensor_id;sensor_type;location;lat;lon;timestamp;temperature;humidity
4314;DHT22;2170;48.794;9.182;2024-03-02T00:01:14;7.20;99.90
4314;DHT22;2170;48.794;9.182;2024-03-02T00:03:43;7.20;99.90
4314;DHT22;2170;48.794;9.182;2024-03-02T00:06:10;7.20;99.90
4314;DHT22;2170;48.794;9.182;2024-03-02T00:08:37;7.20;99.90
4314;DHT22;2170;48.794;9.182;2024-03-02T00:11:04;7.20;99.90
4314;DHT22;2170;48.794;9.182;2024-03-02T00:13:30;7.20;99.90
4314;DHT22;2170;48.794;9.182;2024-03-02T00:15:57;7.20;99.90
4314;DHT22;2170;48.794;9.182;2024-03-02T00:18:26;7.20;99.90
4314;DHT22;2170;48.794;9.182;2024-03-02T00:20:56;7.20;99.90
4314;DHT22;2170;48.794;9.182;2024-03-02T00:23:23;7.20;99.90
4314;DHT22;2170;48.794;9.182;2024-03-02T00:25:52;7.20;99.90
4314;DHT22;2170;48.794;9.182;2024-03-02T00:28:20;7.20;99.90
4314;DHT22;2170;48.794;9.182;2024-03-02T00:30:58;7.10;99.90
4314;DHT22;2170;48.794;9.182;2024-03-02T00:33:29;7.20;99.90
4314;DHT22;2170;48.794;9.182;2024-03-02T00:35:58;7.10;99.90
4314;DHT22;2170;48.794;9.182;2024-03-02T00:38:25;7.10;99.90
4314;DHT22;2170;48.794;9.182;2024-03-02T00:40:53;7.10;99.90
4314;DHT22;2170;48.794;9.182;2024-03-02T00:43:43;7.10;99.90
4314;DHT22;2170;48.794;9.182;2024-03-02T00:46:15;7.10;99.90
4314;DHT22;2170;48.794;9.182;2024-03-02T00:48:48;7.10;99.90
4314;DHT22;2170;48.794;9.182;2024-03-02T00:51:18;7.10;99.90
4314;DHT22;2170;48.794;9.182;2024-03-02T00:53:45;7.10;99.90
4314;DHT22;2170;48.794;9.182;2024-03-02T00:56:12;7.10;99.90
4314;DHT22;2170;48.794;9.182;2024-03-02T00:58:39;7.10;99.90
4314;DHT22;2170;48.794;9.182;2024-03-02T01:01:06;7.10;99.90
4314;DHT22;2170;48.794;9.182;2024-03-02T01:03:33;7.10;99.90
4314;DHT22;2170;48.794;9.182;2024-03-02T01:06:00;7.10;99.90
4314;DHT22;2170;48.794;9.182;2024-03-02T01:08:29;7.00;99.90
4314;DHT22;2170;48.794;9.182;2024-03-02T01:10:56;7.00;99.90
4314;DHT22;2170;48.794;9.182;2024-03-02T01:13:22;6.90;99.90
4314;DHT22;2170;48.794;9.182;2024-03-02T01:15:49;6.90;99.90
4314;DHT22;2170;48.794;9.182;2024-03-02T01:18:16;6.80;99.90
4314;DHT22;2170;48.794;9.182;2024-03-02T01:20:43;6.80;99.90
4314;DHT22;2170;48.794;9.182;2024-03-02T01:23:09;6.80;99.90
4314;DHT22;2170;48.794;9.182;2024-03-02T01:25:37;6.70;99.90
4314;DHT22;2170;48.794;9.182;2024-03-02T01:28:05;6.70;99.90
4314;DHT22;2170;48.794;9.182;2024-03-02T01:30:31;6.70;99.90
4314;DHT22;2170;48.794;9.182;2024-03-02T01:32:58;6.60;99.90
4314;DHT22;2170;48.794;9.182;2024-03-02T01:35:25;6.60;99.90
4314;DHT22;2170;48.794;9.182;2024-03-02T01:37:53;6.60;99.90
4314;DHT22;2170;48.794;9.182;2024-03-02T01:40:19;6.50;99.90
4314;DHT22;2170;48.794;9.182;2024-03-02T01:42:47;6.60;99.90
4314;DHT22;2170;48.794;9.182;2024-03-02T01:45:14;6.50;99.90
4314;DHT22;2170;48.794;9.182;2024-03-02T01:47:41;6.50;99.90
4314;DHT22;2170;48.794;9.182;2024-03-02T01:50:08;6.50;99.90
4314;DHT22;2170;48.794;9.182;2024-03-02T01:52:37;6.50;99.90
4314;DHT22;2170;48.794;9.182;2024-03-02T01:55:04;6.50;99.90
4314;DHT22;2170;48.794;9.182;2024-03-02T01:57:31;6.50;99.90
4314;DHT22;2170;48.794;9.182;2024-03-02T02:00:00;6.50;99.90
4314;DHT22;2170;48.794;9.182;2024-03-02T02:02:27;6.50;99.90
4314;DHT22;2170;48.794;9.182;2024-03-02T02:04:54;6.30;99.90
4314;DHT22;2170;48.794;9.182;2024-03-02T02:07:21;6.30;99.90
4314;DHT22;2170;48.794;9.182;2024-03-02T02:09:47;6.30;99.90
4314;DHT22;2170;48.794;9.182;2024-03-02T02:12:14;6.30;99.90
4314;DHT22;2170;48.794;9.182;2024-03-02T02:14:47;6.30;99.90
4314;DHT22;2170;48.794;9.182;2024-03-02T02:17:16;6.20;99.90
4314;DHT22;2170;48.794;9.182;2024-03-02T02:19:43;6.20;99.90
4314;DHT22;2170;48.794;9.182;2024-03-02T02:22:11;6.20;99.90
4314;DHT22;2170;48.794;9.182;2024-03-02T02:24:40;6.20;99.90
4314;DHT22;2170;48.794;9.182;2024-03-02T02:27:07;6.10;99.90
4314;DHT22;2170;48.794;9.182;2024-03-02T02:29:34;6.10;99.90
4314;DHT22;2170;48.794;9.182;2024-03-02T02:32:00;6.10;99.90
4314;DHT22;2170;48.794;9.182;2024-03-02T02:34:27;6.10;99.90
4314;DHT22;2170;48.794;9.182;2024-03-02T02:36:54;6.00;99.90
4314;DHT22;2170;48.794;9.182;2024-03-02T02:39:23;6.00;99.90
4314;DHT22;2170;48.794;9.182;2024-03-02T02:41:49;6.00;99.90
4314;DHT22;2170;48.794;9.182;2024-03-02T02:44:16;5.90;99.90
4314;DHT22;2170;48.794;9.182;2024-03-02T02:46:43;5.90;99.90
4314;DHT22;2170;48.794;9.182;2024-03-02T02:49:09;5.80;99.90
4314;DHT22;2170;48.794;9.182;2024-03-02T02:51:36;5.80;99.90
4314;DHT22;2170;48.794;9.182;2024-03-02T02:54:03;5.70;99.90
4314;DHT22;2170;48.794;9.182;2024-03-02T02:56:31;5.70;99.90
4314;DHT22;2170;48.794;9.182;2024-03-02T02:58:57;5.70;99.90
4314;DHT22;2170;48.794;9.182;2024-03-02T03:01:25;5.60;99.90
4314;DHT22;2170;48.794;9.182;2024-03-02T03:03:52;5.60;99.90
4314;DHT22;2170;48.794;9.182;2024-03-02T03:06:19;5.50;99.90
4314;DHT22;2170;48.794;9.182;2024-03-02T03:08:45;5.50;99.90
4314;DHT22;2170;48.794;9.182;2024-03-02T03:11:12;5.50;99.90
4314;DHT22;2170;48.794;9.182;2024-03-02T03:13:41;5.50;99.90
4314;DHT22;2170;48.794;9.182;2024-03-02T03:16:08;5.50;99.90
4314;DHT22;2170;48.794;9.182;2024-03-02T03:18:34;5.40;99.90
4314;DHT22;2170;48.794;9.182;2024-03-02T03:21:01;5.40;99.90
4314;DHT22;2170;48.794;9.182;2024-03-02T03:23:28;5.40;99.90
4314;DHT22;2170;48.794;9.182;2024-03-02T03:25:55;5.40;99.90
4314;DHT22;2170;48.794;9.182;2024-03-02T03:28:21;5.40;99.90
4314;DHT22;2170;48.794;9.182;2024-03-02T03:30:49;5.40;99.90
4314;DHT22;2170;48.794;9.182;2024-03-02T03:33:16;5.30;99.90
4314;DHT22;2170;48.794;9.182;2024-03-02T03:35:43;5.30;99.90
4314;DHT22;2170;48.794;9.182;2024-03-02T03:38:09;5.30;99.90
4314;DHT22;2170;48.794;9.182;2024-03-02T03:40:36;5.30;99.90
4314;DHT22;2170;48.794;9.182;2024-03-02T03:43:03;5.30;99.90
4314;DHT22;2170;48.794;9.182;2024-03-02T03:45:29;5.20;99.90
4314;DHT22;2170;48.794;9.182;2024-03-02T03:47:57;5.10;99.90
4314;DHT22;2170;48.794;9.182;2024-03-02T03:50:24;5.00;99.90
4314;DHT22;2170;48.794;9.182;2024-03-02T03:52:51;5.00;99.90
4314;DHT22;2170;48.794;9.182;2024-03-02T03:55:18;5.00;99.90
4314;DHT22;2170;48.794;9.182;2024-03-02T03:57:44;4.90;99.90
4314;DHT22;2170;48.794;9.182;2024-03-02T04:00:12;4.90;99.90
4314;DHT22;2170;48.794;9.182;2024-03-02T04:02:39;4.80;99.90
4314;DHT22;2170;48.794;9.182;2024-03-02T04:05:08;4.80;99.90
4314;DHT22;2170;48.794;9.182;2024-03-02T04:07:36;4.80;99.90
4314;DHT22;2170;48.794;9.182;2024-03-02T04:10:07;4.80;99.90
4314;DHT22;2170;48.794;9.182;2024-03-02T04:12:35;4.80;99.90
4314;DHT22;2170;48.794;9.182;2024-03-02T04:15:02;4.80;99.90
4314;DHT22;2170;48.794;9.182;2024-03-02T04:17:30;4.80;99.90
4314;DHT22;2170;48.794;9.182;2024-03-02T04:19:57;4.80;99.90
4314;DHT22;2170;48.794;9.182;2024-03-02T04:22:26;4.80;99.90
4314;DHT22;2170;48.794;9.182;2024-03-02T04:24:52;4.80;99.90
4314;DHT22;2170;48.794;9.182;2024-03-02T04:27:19;4.80;99.90
4314;DHT22;2170;48.794;9.182;2024-03-02T04:29:46;4.80;99.90
4314;DHT22;2170;48.794;9.182;2024-03-02T04:32:13;4.70;99.90
4314;DHT22;2170;48.794;9.182;2024-03-02T04:34:39;4.70;99.90
4314;DHT22;2170;48.794;9.182;2024-03-02T04:37:06;4.70;99.90
4314;DHT22;2170;48.794;9.182;2024-03-02T04:39:35;4.70;99.90
4314;DHT22;2170;48.794;9.182;2024-03-02T04:42:02;4.70;99.90
4314;DHT22;2170;48.794;9.182;2024-03-02T04:44:29;4.70;99.90
4314;DHT22;2170;48.794;9.182;2024-03-02T04:46:56;4.70;99.90
4314;DHT22;2170;48.794;9.182;2024-03-02T04:49:23;4.70;99.90
4314;DHT22;2170;48.794;9.182;2024-03-02T04:51:49;4.60;99.90
4314;DHT22;2170;48.794;9.182;2024-03-02T04:54:16;4.60;99.90
4314;DHT22;2170;48.794;9.182;2024-03-02T04:56:44;4.60;99.90
4314;DHT22;2170;48.794;9.182;2024-03-02T04:59:15;4.50;99.90
4314;DHT22;2170;48.794;9.182;2024-03-02T05:01:42;4.50;99.90
4314;DHT22;2170;48.794;9.182;2024-03-02T05:04:09;4.50;99.90
4314;DHT22;2170;48.794;9.182;2024-03-02T05:06:37;4.40;99.90
4314;DHT22;2170;48.794;9.182;2024-03-02T05:09:04;4.40;99.90
4314;DHT22;2170;48.794;9.182;2024-03-02T05:11:31;4.40;99.90
4314;DHT22;2170;48.794;9.182;2024-03-02T05:14:20;4.40;99.90
4314;DHT22;2170;48.794;9.182;2024-03-02T05:16:45;4.40;99.90
4314;DHT22;2170;48.794;9.182;2024-03-02T05:19:12;4.40;99.90
4314;DHT22;2170;48.794;9.182;2024-03-02T05:21:39;4.40;99.90
4314;DHT22;2170;48.794;9.182;2024-03-02T05:24:05;4.40;99.90
4314;DHT22;2170;48.794;9.182;2024-03-02T05:26:32;4.40;99.90
4314;DHT22;2170;48.794;9.182;2024-03-02T05:28:59;4.30;99.90
4314;DHT22;2170;48.794;9.182;2024-03-02T05:31:27;4.30;99.90
4314;DHT22;2170;48.794;9.182;2024-03-02T05:33:53;4.30;99.90
4314;DHT22;2170;48.794;9.182;2024-03-02T05:36:20;4.30;99.90
4314;DHT22;2170;48.794;9.182;2024-03-02T05:38:47;4.30;99.90
4314;DHT22;2170;48.794;9.182;2024-03-02T05:41:13;4.30;99.90
4314;DHT22;2170;48.794;9.182;2024-03-02T05:43:40;4.30;99.90
4314;DHT22;2170;48.794;9.182;2024-03-02T05:46:07;4.30;99.90
4314;DHT22;2170;48.794;9.182;2024-03-02T05:48:35;4.30;99.90
4314;DHT22;2170;48.794;9.182;2024-03-02T05:51:02;4.20;99.90
4314;DHT22;2170;48.794;9.182;2024-03-02T05:53:28;4.20;99.90
4314;DHT22;2170;48.794;9.182;2024-03-02T05:55:55;4.20;99.90
4314;DHT22;2170;48.794;9.182;2024-03-02T05:58:22;4.20;99.90
4314;DHT22;2170;48.794;9.182;2024-03-02T06:00:59;4.20;99.90
4314;DHT22;2170;48.794;9.182;2024-03-02T06:03:25;4.20;99.90
4314;DHT22;2170;48.794;9.182;2024-03-02T06:05:55;4.20;99.90
4314;DHT22;2170;48.794;9.182;2024-03-02T06:08:21;4.20;99.90
4314;DHT22;2170;48.794;9.182;2024-03-02T06:10:48;4.20;99.90
4314;DHT22;2170;48.794;9.182;2024-03-02T06:13:15;4.20;99.90
4314;DHT22;2170;48.794;9.182;2024-03-02T06:15:41;4.20;99.90
4314;DHT22;2170;48.794;9.182;2024-03-02T06:18:09;4.20;99.90
4314;DHT22;2170;48.794;9.182;2024-03-02T06:20:35;4.20;99.90
4314;DHT22;2170;48.794;9.182;2024-03-02T06:23:04;4.30;99.90
4314;DHT22;2170;48.794;9.182;2024-03-02T06:25:30;4.30;99.90
4314;DHT22;2170;48.794;9.182;2024-03-02T06:27:57;4.40;99.90
4314;DHT22;2170;48.794;9.182;2024-03-02T06:30:24;4.40;99.90
4314;DHT22;2170;48.794;9.182;2024-03-02T06:32:51;4.40;99.90
4314;DHT22;2170;48.794;9.182;2024-03-02T06:35:17;4.40;99.90
4314;DHT22;2170;48.794;9.182;2024-03-02T06:37:44;4.40;99.90
4314;DHT22;2170;48.794;9.182;2024-03-02T06:40:12;4.30;99.90
4314;DHT22;2170;48.794;9.182;2024-03-02T06:42:39;4.40;99.90
4314;DHT22;2170;48.794;9.182;2024-03-02T06:45:06;4.40;99.90
4314;DHT22;2170;48.794;9.182;2024-03-02T06:47:33;4.40;99.90
4314;DHT22;2170;48.794;9.182;2024-03-02T06:49:59;4.50;99.90
4314;DHT22;2170;48.794;9.182;2024-03-02T06:52:26;4.50;99.90
4314;DHT22;2170;48.794;9.182;2024-03-02T06:54:53;4.50;99.90
4314;DHT22;2170;48.794;9.182;2024-03-02T06:57:21;4.60;99.90
4314;DHT22;2170;48.794;9.182;2024-03-02T06:59:47;4.70;99.90
4314;DHT22;2170;48.794;9.182;2024-03-02T07:02:16;4.70;99.90
4314;DHT22;2170;48.794;9.182;2024-03-02T07:04:43;4.80;99.90
4314;DHT22;2170;48.794;9.182;2024-03-02T07:07:10;4.90;99.90
4314;DHT22;2170;48.794;9.182;2024-03-02T07:09:37;4.90;99.90
4314;DHT22;2170;48.794;9.182;2024-03-02T07:12:04;5.00;99.90
4314;DHT22;2170;48.794;9.182;2024-03-02T07:14:32;5.10;99.90
4314;DHT22;2170;48.794;9.182;2024-03-02T07:17:16;5.10;99.90
4314;DHT22;2170;48.794;9.182;2024-03-02T07:19:43;5.20;99.90
4314;DHT22;2170;48.794;9.182;2024-03-02T07:22:10;5.30;99.90
4314;DHT22;2170;48.794;9.182;2024-03-02T07:24:39;5.50;99.90
4314;DHT22;2170;48.794;9.182;2024-03-02T07:27:06;5.60;99.90
4314;DHT22;2170;48.794;9.182;2024-03-02T07:29:34;5.70;99.90
4314;DHT22;2170;48.794;9.182;2024-03-02T07:32:01;5.90;99.90
4314;DHT22;2170;48.794;9.182;2024-03-02T07:34:27;6.00;99.90
4314;DHT22;2170;48.794;9.182;2024-03-02T07:36:54;6.10;99.90
4314;DHT22;2170;48.794;9.182;2024-03-02T07:39:21;6.20;99.90
4314;DHT22;2170;48.794;9.182;2024-03-02T07:41:48;6.30;99.90
4314;DHT22;2170;48.794;9.182;2024-03-02T07:44:15;6.30;99.90
4314;DHT22;2170;48.794;9.182;2024-03-02T07:46:46;6.30;99.90
4314;DHT22;2170;48.794;9.182;2024-03-02T07:49:13;6.30;99.90
4314;DHT22;2170;48.794;9.182;2024-03-02T07:51:40;6.20;99.90
4314;DHT22;2170;48.794;9.182;2024-03-02T07:54:07;6.30;99.90
4314;DHT22;2170;48.794;9.182;2024-03-02T07:56:34;6.20;99.90
4314;DHT22;2170;48.794;9.182;2024-03-02T07:59:01;6.20;99.90
4314;DHT22;2170;48.794;9.182;2024-03-02T08:01:27;6.30;99.90
4314;DHT22;2170;48.794;9.182;2024-03-02T08:03:57;6.30;99.90
4314;DHT22;2170;48.794;9.182;2024-03-02T08:06:24;6.40;99.90
4314;DHT22;2170;48.794;9.182;2024-03-02T08:08:53;6.50;99.90
4314;DHT22;2170;48.794;9.182;2024-03-02T08:11:20;6.50;99.90
4314;DHT22;2170;48.794;9.182;2024-03-02T08:13:47;6.50;99.90
4314;DHT22;2170;48.794;9.182;2024-03-02T08:16:13;6.60;99.90
4314;DHT22;2170;48.794;9.182;2024-03-02T08:18:40;6.60;99.90
4314;DHT22;2170;48.794;9.182;2024-03-02T08:21:09;6.70;99.90
4314;DHT22;2170;48.794;9.182;2024-03-02T08:23:35;6.80;99.90
4314;DHT22;2170;48.794;9.182;2024-03-02T08:26:03;6.90;99.90
4314;DHT22;2170;48.794;9.182;2024-03-02T08:28:30;7.00;99.90
4314;DHT22;2170;48.794;9.182;2024-03-02T08:30:56;7.20;99.90
4314;DHT22;2170;48.794;9.182;2024-03-02T08:33:23;7.40;99.90
4314;DHT22;2170;48.794;9.182;2024-03-02T08:35:50;7.70;99.90
4314;DHT22;2170;48.794;9.182;2024-03-02T08:38:18;7.90;99.90
4314;DHT22;2170;48.794;9.182;2024-03-02T08:40:45;8.10;99.90
4314;DHT22;2170;48.794;9.182;2024-03-02T08:43:11;8.20;99.90
4314;DHT22;2170;48.794;9.182;2024-03-02T08:45:38;8.50;99.90
4314;DHT22;2170;48.794;9.182;2024-03-02T08:48:06;8.80;99.90
4314;DHT22;2170;48.794;9.182;2024-03-02T08:50:33;9.20;99.90
4314;DHT22;2170;48.794;9.182;2024-03-02T08:53:00;9.40;99.90
4314;DHT22;2170;48.794;9.182;2024-03-02T08:55:29;9.40;99.90
4314;DHT22;2170;48.794;9.182;2024-03-02T08:57:56;9.80;99.90
4314;DHT22;2170;48.794;9.182;2024-03-02T09:00:23;9.90;99.90
4314;DHT22;2170;48.794;9.182;2024-03-02T09:02:50;10.20;99.90
4314;DHT22;2170;48.794;9.182;2024-03-02T09:05:16;10.40;99.90
4314;DHT22;2170;48.794;9.182;2024-03-02T09:07:43;10.60;99.90
4314;DHT22;2170;48.794;9.182;2024-03-02T09:10:10;10.80;99.90
4314;DHT22;2170;48.794;9.182;2024-03-02T09:12:38;11.00;99.90
4314;DHT22;2170;48.794;9.182;2024-03-02T09:15:06;11.20;99.90
4314;DHT22;2170;48.794;9.182;2024-03-02T09:17:33;11.40;99.90
4314;DHT22;2170;48.794;9.182;2024-03-02T09:19:59;11.70;99.90
4314;DHT22;2170;48.794;9.182;2024-03-02T09:22:26;11.80;99.90
4314;DHT22;2170;48.794;9.182;2024-03-02T09:24:53;12.20;99.90
4314;DHT22;2170;48.794;9.182;2024-03-02T09:27:19;12.50;99.90
4314;DHT22;2170;48.794;9.182;2024-03-02T09:29:47;12.70;99.90
4314;DHT22;2170;48.794;9.182;2024-03-02T09:32:14;12.90;99.90
4314;DHT22;2170;48.794;9.182;2024-03-02T09:34:41;13.30;99.90
4314;DHT22;2170;48.794;9.182;2024-03-02T09:37:08;13.40;99.90
4314;DHT22;2170;48.794;9.182;2024-03-02T09:39:35;13.60;99.90
4314;DHT22;2170;48.794;9.182;2024-03-02T09:42:04;13.90;99.90
4314;DHT22;2170;48.794;9.182;2024-03-02T09:44:31;14.20;99.90
4314;DHT22;2170;48.794;9.182;2024-03-02T09:47:00;14.50;99.90
4314;DHT22;2170;48.794;9.182;2024-03-02T09:49:27;14.60;99.90
4314;DHT22;2170;48.794;9.182;2024-03-02T09:51:54;14.90;99.90
4314;DHT22;2170;48.794;9.182;2024-03-02T09:54:21;14.80;99.90
4314;DHT22;2170;48.794;9.182;2024-03-02T09:56:49;15.00;99.90
4314;DHT22;2170;48.794;9.182;2024-03-02T09:59:16;15.20;99.90
4314;DHT22;2170;48.794;9.182;2024-03-02T10:01:56;15.50;99.90
4314;DHT22;2170;48.794;9.182;2024-03-02T10:04:25;15.40;99.90
4314;DHT22;2170;48.794;9.182;2024-03-02T10:07:09;15.40;99.90
4314;DHT22;2170;48.794;9.182;2024-03-02T10:09:37;15.60;99.90
4314;DHT22;2170;48.794;9.182;2024-03-02T10:12:04;15.80;99.90
4314;DHT22;2170;48.794;9.182;2024-03-02T10:14:31;16.10;99.90
4314;DHT22;2170;48.794;9.182;2024-03-02T10:17:02;16.30;99.90
4314;DHT22;2170;48.794;9.182;2024-03-02T10:19:31;16.50;99.90
4314;DHT22;2170;48.794;9.182;2024-03-02T10:21:59;16.50;99.90
4314;DHT22;2170;48.794;9.182;2024-03-02T10:24:26;17.00;99.90
4314;DHT22;2170;48.794;9.182;2024-03-02T10:26:53;17.20;99.90
4314;DHT22;2170;48.794;9.182;2024-03-02T10:29:19;17.30;99.90
4314;DHT22;2170;48.794;9.182;2024-03-02T10:31:46;17.00;99.90
4314;DHT22;2170;48.794;9.182;2024-03-02T10:34:13;17.20;99.90
4314;DHT22;2170;48.794;9.182;2024-03-02T10:36:44;17.50;99.90
4314;DHT22;2170;48.794;9.182;2024-03-02T10:39:13;17.30;99.90
4314;DHT22;2170;48.794;9.182;2024-03-02T10:41:40;17.30;99.90
4314;DHT22;2170;48.794;9.182;2024-03-02T10:44:08;17.40;99.90
4314;DHT22;2170;48.794;9.182;2024-03-02T10:46:36;17.70;99.90
4314;DHT22;2170;48.794;9.182;2024-03-02T10:49:05;17.90;99.90
4314;DHT22;2170;48.794;9.182;2024-03-02T10:51:33;17.90;99.90
4314;DHT22;2170;48.794;9.182;2024-03-02T10:54:03;18.30;99.90
4314;DHT22;2170;48.794;9.182;2024-03-02T10:56:31;18.40;99.90
4314;DHT22;2170;48.794;9.182;2024-03-02T10:59:03;18.40;99.90
4314;DHT22;2170;48.794;9.182;2024-03-02T11:01:31;18.40;99.90
4314;DHT22;2170;48.794;9.182;2024-03-02T11:03:59;17.50;99.90
4314;DHT22;2170;48.794;9.182;2024-03-02T11:06:28;17.90;99.90
4314;DHT22;2170;48.794;9.182;2024-03-02T11:09:00;18.10;99.90
4314;DHT22;2170;48.794;9.182;2024-03-02T11:11:36;18.40;99.90
4314;DHT22;2170;48.794;9.182;2024-03-02T11:14:04;18.70;99.90
4314;DHT22;2170;48.794;9.182;2024-03-02T11:16:34;18.90;99.90
4314;DHT22;2170;48.794;9.182;2024-03-02T11:19:04;18.80;99.90
4314;DHT22;2170;48.794;9.182;2024-03-02T11:21:32;19.20;99.90
4314;DHT22;2170;48.794;9.182;2024-03-02T11:23:59;19.70;99.90
4314;DHT22;2170;48.794;9.182;2024-03-02T11:26:27;19.70;99.90
4314;DHT22;2170;48.794;9.182;2024-03-02T11:28:56;19.90;99.90
4314;DHT22;2170;48.794;9.182;2024-03-02T11:31:58;20.00;99.90
4314;DHT22;2170;48.794;9.182;2024-03-02T11:34:29;20.40;99.90
4314;DHT22;2170;48.794;9.182;2024-03-02T11:36:56;20.70;99.90
4314;DHT22;2170;48.794;9.182;2024-03-02T11:39:24;20.50;99.90
4314;DHT22;2170;48.794;9.182;2024-03-02T11:41:51;20.30;99.90
4314;DHT22;2170;48.794;9.182;2024-03-02T11:44:19;20.20;99.90
4314;DHT22;2170;48.794;9.182;2024-03-02T11:46:48;20.30;99.70
4314;DHT22;2170;48.794;9.182;2024-03-02T11:49:28;20.30;99.60
4314;DHT22;2170;48.794;9.182;2024-03-02T11:52:04;20.30;99.90
4314;DHT22;2170;48.794;9.182;2024-03-02T11:54:32;20.30;99.20
4314;DHT22;2170;48.794;9.182;2024-03-02T11:57:01;20.30;99.90
4314;DHT22;2170;48.794;9.182;2024-03-02T11:59:30;20.60;98.40
4314;DHT22;2170;48.794;9.182;2024-03-02T12:01:58;20.60;97.70
4314;DHT22;2170;48.794;9.182;2024-03-02T12:04:25;20.70;97.60
4314;DHT22;2170;48.794;9.182;2024-03-02T12:06:54;20.70;97.30
4314;DHT22;2170;48.794;9.182;2024-03-02T12:09:21;20.30;96.70
4314;DHT22;2170;48.794;9.182;2024-03-02T12:11:48;20.30;96.50
4314;DHT22;2170;48.794;9.182;2024-03-02T12:14:15;20.20;96.40
4314;DHT22;2170;48.794;9.182;2024-03-02T12:16:45;20.50;96.00
4314;DHT22;2170;48.794;9.182;2024-03-02T12:19:11;20.70;96.40
4314;DHT22;2170;48.794;9.182;2024-03-02T12:21:38;20.90;96.00
4314;DHT22;2170;48.794;9.182;2024-03-02T12:24:05;21.30;95.20
4314;DHT22;2170;48.794;9.182;2024-03-02T12:26:32;21.20;93.90
4314;DHT22;2170;48.794;9.182;2024-03-02T12:28:59;20.90;94.10
4314;DHT22;2170;48.794;9.182;2024-03-02T12:31:26;20.70;94.40
4314;DHT22;2170;48.794;9.182;2024-03-02T12:33:54;20.70;93.50
4314;DHT22;2170;48.794;9.182;2024-03-02T12:36:22;20.90;93.70
4314;DHT22;2170;48.794;9.182;2024-03-02T12:38:48;21.30;93.30
4314;DHT22;2170;48.794;9.182;2024-03-02T12:41:18;21.80;92.30
4314;DHT22;2170;48.794;9.182;2024-03-02T12:43:45;21.60;91.70
4314;DHT22;2170;48.794;9.182;2024-03-02T12:46:12;21.90;91.90
4314;DHT22;2170;48.794;9.182;2024-03-02T12:48:39;21.90;91.90
4314;DHT22;2170;48.794;9.182;2024-03-02T12:51:09;22.20;91.20
4314;DHT22;2170;48.794;9.182;2024-03-02T12:53:35;22.40;90.80
4314;DHT22;2170;48.794;9.182;2024-03-02T12:56:03;22.70;89.30
4314;DHT22;2170;48.794;9.182;2024-03-02T12:58:29;22.90;87.60
4314;DHT22;2170;48.794;9.182;2024-03-02T13:01:07;22.80;88.10
4314;DHT22;2170;48.794;9.182;2024-03-02T13:03:36;22.90;87.40
4314;DHT22;2170;48.794;9.182;2024-03-02T13:06:03;22.90;86.70
4314;DHT22;2170;48.794;9.182;2024-03-02T13:08:31;23.10;85.30
4314;DHT22;2170;48.794;9.182;2024-03-02T13:10:58;23.10;85.10
4314;DHT22;2170;48.794;9.182;2024-03-02T13:13:25;23.00;83.30
4314;DHT22;2170;48.794;9.182;2024-03-02T13:15:55;22.70;82.60
4314;DHT22;2170;48.794;9.182;2024-03-02T13:18:22;22.80;83.60
4314;DHT22;2170;48.794;9.182;2024-03-02T13:20:48;22.90;83.60
4314;DHT22;2170;48.794;9.182;2024-03-02T13:23:16;23.00;81.70
4314;DHT22;2170;48.794;9.182;2024-03-02T13:25:44;23.00;81.00
4314;DHT22;2170;48.794;9.182;2024-03-02T13:28:13;23.00;80.80
4314;DHT22;2170;48.794;9.182;2024-03-02T13:30:39;22.30;79.80
4314;DHT22;2170;48.794;9.182;2024-03-02T13:33:06;21.80;81.90
4314;DHT22;2170;48.794;9.182;2024-03-02T13:35:33;21.90;81.40
4314;DHT22;2170;48.794;9.182;2024-03-02T13:38:00;21.50;82.70
4314;DHT22;2170;48.794;9.182;2024-03-02T13:40:26;22.40;81.50
4314;DHT22;2170;48.794;9.182;2024-03-02T13:42:55;22.80;80.50
4314;DHT22;2170;48.794;9.182;2024-03-02T13:45:22;23.30;79.60
4314;DHT22;2170;48.794;9.182;2024-03-02T13:47:49;23.50;79.00
4314;DHT22;2170;48.794;9.182;2024-03-02T13:50:17;23.60;77.60
4314;DHT22;2170;48.794;9.182;2024-03-02T13:52:44;23.20;77.50
4314;DHT22;2170;48.794;9.182;2024-03-02T13:55:10;23.10;77.20
4314;DHT22;2170;48.794;9.182;2024-03-02T13:57:37;22.90;78.10
4314;DHT22;2170;48.794;9.182;2024-03-02T14:00:10;23.40;77.40
4314;DHT22;2170;48.794;9.182;2024-03-02T14:02:37;23.70;76.40
4314;DHT22;2170;48.794;9.182;2024-03-02T14:05:05;23.60;75.70
4314;DHT22;2170;48.794;9.182;2024-03-02T14:10:00;23.00;74.90
4314;DHT22;2170;48.794;9.182;2024-03-02T14:12:26;22.50;74.40
4314;DHT22;2170;48.794;9.182;2024-03-02T14:25:27;22.70;77.40
4314;DHT22;2170;48.794;9.182;2024-03-02T14:28:26;23.10;77.10
4314;DHT22;2170;48.794;9.182;2024-03-02T14:31:22;22.90;75.60
4314;DHT22;2170;48.794;9.182;2024-03-02T14:34:25;23.00;75.00
4314;DHT22;2170;48.794;9.182;2024-03-02T15:13:58;21.10;71.70
4314;DHT22;2170;48.794;9.182;2024-03-02T15:15:55;21.10;71.10
4314;DHT22;2170;48.794;9.182;2024-03-02T17:29:45;14.60;99.90
4314;DHT22;2170;48.794;9.182;2024-03-02T17:33:22;14.30;99.90
4314;DHT22;2170;48.794;9.182;2024-03-02T17:53:14;14.20;99.90
4314;DHT22;2170;48.794;9.182;2024-03-02T19:58:47;11.60;99.90
4314;DHT22;2170;48.794;9.182;2024-03-02T20:46:36;11.10;99.90
4314;DHT22;2170;48.794;9.182;2024-03-02T21:00:03;10.80;99.90
4314;DHT22;2170;48.794;9.182;2024-03-02T21:16:17;10.30;99.90
4314;DHT22;2170;48.794;9.182;2024-03-02T21:22:52;10.50;99.90
4314;DHT22;2170;48.794;9.182;2024-03-02T21:25:58;10.40;99.90
4314;DHT22;2170;48.794;9.182;2024-03-02T21:29:03;10.30;99.90
4314;DHT22;2170;48.794;9.182;2024-03-02T21:31:52;10.20;99.90
4314;DHT22;2170;48.794;9.182;2024-03-02T21:34:32;10.10;99.90
4314;DHT22;2170;48.794;9.182;2024-03-02T21:37:28;10.10;99.90
4314;DHT22;2170;48.794;9.182;2024-03-02T21:40:43;10.10;99.90
4314;DHT22;2170;48.794;9.182;2024-03-02T21:43:41;10.40;99.90
4314;DHT22;2170;48.794;9.182;2024-03-02T21:51:53;10.20;99.90
4314;DHT22;2170;48.794;9.182;2024-03-02T21:53:45;10.20;99.90
4314;DHT22;2170;48.794;9.182;2024-03-02T21:56:37;10.10;99.90
4314;DHT22;2170;48.794;9.182;2024-03-02T22:29:49;10.10;99.90
4314;DHT22;2170;48.794;9.182;2024-03-02T22:44:44;10.00;99.90
4314;DHT22;2170;48.794;9.182;2024-03-02T22:56:49;9.90;99.90
4314;DHT22;2170;48.794;9.182;2024-03-02T23:13:49;9.80;99.90
4314;DHT22;2170;48.794;9.182;2024-03-02T23:17:49;9.80;99.90
4314;DHT22;2170;48.794;9.182;2024-03-02T23:41:43;9.30;99.90
